createdAt,value
2019-03-01T00:03:10.731Z,19.50
2019-03-01T00:08:21.558Z,17.97
2019-03-01T00:14:06.116Z,18.90
2019-03-01T00:19:30.136Z,17.57
2019-03-01T00:25:00.909Z,16.10
2019-03-01T00:30:48.556Z,18.53
2019-03-01T00:36:34.937Z,16.50
2019-03-01T00:42:28.821Z,18.27
2019-03-01T00:47:34.899Z,21.87
2019-03-01T00:52:42.215Z,19.00
2019-03-01T00:57:48.593Z,19.27
2019-03-01T01:02:54.585Z,17.73
2019-03-01T01:08:01.073Z,19.77
2019-03-01T01:13:08.812Z,18.57
2019-03-01T01:18:14.181Z,21.00
2019-03-01T01:23:20.581Z,23.47
2019-03-01T01:28:25.964Z,25.40
2019-03-01T01:33:35.043Z,27.13
2019-03-01T01:38:42.004Z,23.07
2019-03-01T01:43:50.400Z,21.93
2019-03-01T01:48:55.700Z,20.90
2019-03-01T01:54:03.637Z,23.03
2019-03-01T01:59:09.616Z,20.73
2019-03-01T02:04:15.588Z,24.17
2019-03-01T02:09:28.874Z,26.60
2019-03-01T02:14:36.733Z,25.47
2019-03-01T02:19:43.300Z,26.97
2019-03-01T02:24:49.980Z,25.23
2019-03-01T02:29:57.174Z,25.60
2019-03-01T02:35:03.027Z,26.90
2019-03-01T02:40:09.737Z,28.33
2019-03-01T02:45:17.318Z,25.27
2019-03-01T02:50:22.918Z,24.73
2019-03-01T02:55:29.499Z,20.97
2019-03-01T03:00:35.113Z,19.73
2019-03-01T03:06:01.247Z,21.83
2019-03-01T03:11:06.949Z,21.77
2019-03-01T03:16:13.562Z,20.83
2019-03-01T03:21:19.382Z,22.77
2019-03-01T03:26:27.086Z,23.20
2019-03-01T03:31:33.678Z,22.93
2019-03-01T03:36:40.050Z,25.00
2019-03-01T03:41:46.647Z,26.00
2019-03-01T03:46:52.868Z,26.40
2019-03-01T03:51:59.183Z,29.03
2019-03-01T03:57:05.102Z,24.37
2019-03-01T04:02:16.337Z,26.20
2019-03-01T04:07:21.393Z,27.67
2019-03-01T04:12:27.319Z,25.87
2019-03-01T04:17:33.867Z,27.60
2019-03-01T04:22:40.062Z,29.13
2019-03-01T04:27:46.741Z,29.13
2019-03-01T04:32:52.296Z,30.57
2019-03-01T04:37:58.194Z,34.13
2019-03-01T04:43:05.148Z,30.13
2019-03-01T04:48:11.875Z,30.20
2019-03-01T04:53:17.920Z,29.57
2019-03-01T04:58:24.078Z,31.83
2019-03-01T05:03:29.989Z,32.70
2019-03-01T05:08:36.473Z,34.47
2019-03-01T05:13:42.184Z,34.63
2019-03-01T05:18:48.457Z,33.23
2019-03-01T05:23:54.976Z,32.97
2019-03-01T05:29:00.925Z,31.47
2019-03-01T05:34:07.316Z,36.80
2019-03-01T05:39:13.685Z,35.07
2019-03-01T05:44:19.684Z,35.27
2019-03-01T05:49:25.974Z,35.97
2019-03-01T05:54:33.228Z,37.60
2019-03-01T05:59:38.951Z,35.17
2019-03-01T06:04:52.721Z,35.23
2019-03-01T06:10:17.496Z,37.47
2019-03-01T06:15:54.390Z,38.30
2019-03-01T06:21:57.886Z,38.73
2019-03-01T06:27:39.867Z,34.47
2019-03-01T06:33:26.013Z,39.20
2019-03-01T06:39:32.496Z,34.80
2019-03-01T06:45:03.681Z,38.97
2019-03-01T06:50:21.212Z,36.93
2019-03-01T06:55:58.652Z,40.23
2019-03-01T07:01:12.086Z,41.00
2019-03-01T07:06:17.502Z,40.30
2019-03-01T07:11:24.323Z,46.10
2019-03-01T07:16:31.011Z,45.37
2019-03-01T07:21:36.623Z,40.10
2019-03-01T07:26:43.063Z,45.97
2019-03-01T07:31:50.974Z,42.43
2019-03-01T07:36:57.584Z,47.97
2019-03-01T07:42:03.227Z,46.63
2019-03-01T07:47:09.141Z,52.43
2019-03-01T07:52:14.601Z,59.37
2019-03-01T07:57:22.214Z,55.73
2019-03-01T08:02:28.257Z,56.70
2019-03-01T08:07:35.352Z,64.00
2019-03-01T08:12:43.470Z,66.00
2019-03-01T08:17:51.440Z,69.20
2019-03-01T08:22:59.830Z,72.73
2019-03-01T08:28:04.563Z,77.07
2019-03-01T08:33:09.962Z,78.43
2019-03-01T08:38:25.527Z,95.37
2019-03-01T08:43:40.663Z,95.57
2019-03-01T08:48:48.106Z,101.83
2019-03-01T08:53:53.868Z,104.20
2019-03-01T08:58:59.474Z,98.93
2019-03-01T09:04:09.390Z,110.97
2019-03-01T09:09:17.561Z,107.23
2019-03-01T09:14:27.498Z,112.93
2019-03-01T09:19:33.209Z,120.27
2019-03-01T09:24:39.762Z,110.43
2019-03-01T09:29:46.514Z,105.67
2019-03-01T09:34:55.207Z,104.83
2019-03-01T09:40:05.819Z,95.70
2019-03-01T09:45:13.644Z,100.63
2019-03-01T09:50:18.510Z,103.20
2019-03-01T09:55:57.567Z,95.70
2019-03-01T10:01:09.298Z,106.97
2019-03-01T10:06:16.206Z,107.20
2019-03-01T10:11:22.991Z,97.83
2019-03-01T10:16:39.432Z,106.07
2019-03-01T10:21:45.485Z,104.80
2019-03-01T10:26:53.087Z,102.40
2019-03-01T10:32:00.245Z,107.30
2019-03-01T10:37:06.339Z,108.07
2019-03-01T10:42:12.741Z,95.13
2019-03-01T10:47:20.633Z,92.37
2019-03-01T10:52:27.025Z,93.57
2019-03-01T10:57:33.746Z,82.77
2019-03-01T11:02:54.693Z,77.77
2019-03-01T11:08:00.205Z,77.17
2019-03-01T11:13:07.922Z,68.20
2019-03-01T11:18:13.485Z,65.97
2019-03-01T11:23:19.149Z,64.37
2019-03-01T11:28:25.148Z,73.63
2019-03-01T11:33:31.224Z,58.73
2019-03-01T11:38:37.342Z,56.37
2019-03-01T11:43:44.109Z,60.67
2019-03-01T11:48:52.463Z,59.27
2019-03-01T11:54:05.248Z,60.40
2019-03-01T11:59:11.260Z,66.10
2019-03-01T12:04:18.467Z,67.43
2019-03-01T12:09:24.840Z,71.43
2019-03-01T12:14:35.356Z,67.07
2019-03-01T12:19:42.026Z,48.77
2019-03-01T12:24:49.041Z,37.27
2019-03-01T12:29:54.890Z,27.30
2019-03-01T12:35:01.470Z,25.33
2019-03-01T12:40:08.328Z,32.00
2019-03-01T12:45:15.038Z,26.60
2019-03-01T12:50:21.657Z,22.63
2019-03-01T12:55:28.074Z,24.60
2019-03-01T13:00:33.031Z,28.63
2019-03-01T13:05:40.382Z,25.67
2019-03-01T13:10:46.815Z,29.20
2019-03-01T13:15:52.835Z,27.47
2019-03-01T13:20:59.377Z,27.77
2019-03-01T13:26:06.121Z,32.07
2019-03-01T13:31:12.945Z,27.03
2019-03-01T13:36:18.524Z,24.73
2019-03-01T13:41:25.434Z,23.00
2019-03-01T13:46:33.443Z,24.57
2019-03-01T13:51:39.805Z,25.77
2019-03-01T13:56:45.391Z,22.23
2019-03-01T14:02:32.561Z,22.33
2019-03-01T14:07:38.509Z,20.13
2019-03-01T14:12:45.202Z,22.97
2019-03-01T14:18:01.217Z,28.43
2019-03-01T14:23:07.756Z,21.23
2019-03-01T14:28:15.619Z,19.73
2019-03-01T14:33:22.171Z,22.47
2019-03-01T14:38:30.077Z,24.00
2019-03-01T14:43:35.082Z,21.43
2019-03-01T14:48:42.999Z,26.63
2019-03-01T14:53:49.297Z,28.43
2019-03-01T14:59:03.312Z,24.43
2019-03-01T15:04:10.194Z,28.77
2019-03-01T15:09:20.051Z,29.97
2019-03-01T15:14:27.871Z,27.47
2019-03-01T15:19:33.337Z,23.67
2019-03-01T15:24:39.179Z,24.83
2019-03-01T15:29:45.018Z,24.10
2019-03-01T15:34:51.278Z,24.00
2019-03-01T15:40:04.219Z,23.50
2019-03-01T15:45:10.984Z,22.00
2019-03-01T15:50:19.155Z,25.67
2019-03-01T15:55:25.242Z,21.40
2019-03-01T16:00:38.564Z,22.10
2019-03-01T16:05:43.730Z,21.50
2019-03-01T16:10:50.538Z,20.13
2019-03-01T16:15:56.989Z,18.20
2019-03-01T16:21:05.209Z,18.97
2019-03-01T16:26:12.086Z,20.37
2019-03-01T16:31:19.217Z,14.53
2019-03-01T16:36:31.964Z,21.17
2019-03-01T16:41:39.706Z,15.37
2019-03-01T16:46:45.704Z,15.60
2019-03-01T16:51:54.021Z,11.47
2019-03-01T16:57:00.146Z,9.47
2019-03-01T17:02:15.811Z,10.10
2019-03-01T17:07:25.045Z,9.33
2019-03-01T17:12:30.965Z,8.83
2019-03-01T17:17:36.828Z,9.73
2019-03-01T17:22:43.776Z,8.87
2019-03-01T17:27:49.697Z,10.53
2019-03-01T17:32:57.137Z,7.63
2019-03-01T17:38:04.081Z,8.53
2019-03-01T17:43:11.441Z,8.43
2019-03-01T17:48:18.407Z,9.97
2019-03-01T17:53:25.613Z,8.10
2019-03-01T17:58:32.418Z,9.43
2019-03-01T18:03:37.154Z,9.27
2019-03-01T18:09:16.176Z,10.60
2019-03-01T18:14:24.340Z,8.77
2019-03-01T18:19:30.351Z,9.90
2019-03-01T18:24:38.658Z,10.07
2019-03-01T18:29:46.796Z,9.97
2019-03-01T18:34:51.981Z,10.47
2019-03-01T18:39:58.545Z,9.70
2019-03-01T18:45:17.637Z,6.50
2019-03-01T18:50:27.634Z,11.53
2019-03-01T18:56:20.077Z,6.53
2019-03-01T19:01:25.860Z,6.93
2019-03-01T19:06:40.848Z,7.50
2019-03-01T19:11:47.608Z,6.53
2019-03-01T19:16:54.161Z,6.40
2019-03-01T19:22:00.884Z,8.80
2019-03-01T19:27:09.279Z,9.90
2019-03-01T19:32:18.681Z,7.00
2019-03-01T19:37:39.069Z,8.67
2019-03-01T19:42:44.805Z,6.33
2019-03-01T19:47:50.748Z,7.20
2019-03-01T19:52:57.240Z,6.70
2019-03-01T19:58:38.057Z,7.83
2019-03-01T20:03:45.397Z,5.33
2019-03-01T20:08:52.109Z,8.00
2019-03-01T20:13:58.806Z,5.57
2019-03-01T20:19:04.986Z,6.00
2019-03-01T20:24:11.448Z,8.93
2019-03-01T20:29:27.387Z,8.27
2019-03-01T20:34:34.882Z,9.63
2019-03-01T20:40:05.800Z,8.83
2019-03-01T20:45:15.233Z,8.40
2019-03-01T20:50:21.636Z,8.37
2019-03-01T20:55:29.361Z,9.80
2019-03-01T21:00:35.176Z,10.07
2019-03-01T21:05:43.629Z,10.67
2019-03-01T21:10:50.067Z,12.57
2019-03-01T21:15:57.520Z,17.50
2019-03-01T21:21:03.911Z,15.37
2019-03-01T21:26:11.996Z,17.63
2019-03-01T21:31:17.932Z,19.07
2019-03-01T21:36:26.286Z,23.47
2019-03-01T21:41:31.905Z,18.93
2019-03-01T21:46:38.750Z,19.77
2019-03-01T21:51:45.573Z,18.23
2019-03-01T21:56:57.279Z,22.70
2019-03-01T22:02:03.435Z,18.37
2019-03-01T22:07:21.522Z,22.10
2019-03-01T22:12:28.633Z,19.43
2019-03-01T22:17:36.525Z,18.80
2019-03-01T22:22:43.593Z,18.67
2019-03-01T22:33:55.879Z,16.73
2019-03-01T22:39:03.248Z,14.37
2019-03-01T22:44:10.224Z,12.73
2019-03-01T22:49:17.104Z,12.37
2019-03-01T22:54:25.595Z,12.30
2019-03-01T22:59:31.500Z,10.33
2019-03-01T23:04:37.324Z,10.43
2019-03-01T23:09:42.684Z,11.30
2019-03-01T23:14:50.533Z,11.80
2019-03-01T23:19:56.406Z,12.00
2019-03-01T23:25:03.429Z,12.10
2019-03-01T23:30:10.598Z,9.93
2019-03-01T23:35:18.205Z,10.77
2019-03-01T23:40:24.485Z,12.57
2019-03-01T23:45:30.163Z,10.53
2019-03-01T23:50:36.396Z,9.70
2019-03-01T23:55:42.377Z,8.67
